sensor_id;sensor_type;location;lat;lon;timestamp;P1;durP1;ratioP1;P2;durP2;ratioP2
70067;SDS011;57425;51.616;6.680;2023-07-31T00:00:05;1.30;;;0.50;;
70067;SDS011;57425;51.616;6.680;2023-07-31T00:02:33;0.90;;;0.70;;
70067;SDS011;57425;51.616;6.680;2023-07-31T00:05:01;1.02;;;0.60;;
70067;SDS011;57425;51.616;6.680;2023-07-31T00:07:26;1.17;;;0.65;;
70067;SDS011;57425;51.616;6.680;2023-07-31T00:09:52;1.40;;;0.82;;
70067;SDS011;57425;51.616;6.680;2023-07-31T00:12:18;1.17;;;0.80;;
70067;SDS011;57425;51.616;6.680;2023-07-31T00:14:45;2.60;;;1.42;;
70067;SDS011;57425;51.616;6.680;2023-07-31T00:17:11;3.60;;;1.73;;
70067;SDS011;57425;51.616;6.680;2023-07-31T00:19:36;3.08;;;1.70;;
70067;SDS011;57425;51.616;6.680;2023-07-31T00:22:02;7.03;;;1.08;;
70067;SDS011;57425;51.616;6.680;2023-07-31T00:24:28;3.03;;;1.27;;
70067;SDS011;57425;51.616;6.680;2023-07-31T00:26:53;4.70;;;1.38;;
70067;SDS011;57425;51.616;6.680;2023-07-31T00:29:19;5.40;;;1.83;;
70067;SDS011;57425;51.616;6.680;2023-07-31T00:31:45;7.25;;;1.80;;
70067;SDS011;57425;51.616;6.680;2023-07-31T00:34:10;2.72;;;1.02;;
70067;SDS011;57425;51.616;6.680;2023-07-31T00:36:36;6.93;;;2.08;;
70067;SDS011;57425;51.616;6.680;2023-07-31T00:39:01;2.30;;;1.33;;
70067;SDS011;57425;51.616;6.680;2023-07-31T00:41:27;3.58;;;1.38;;
70067;SDS011;57425;51.616;6.680;2023-07-31T00:43:53;9.45;;;1.98;;
70067;SDS011;57425;51.616;6.680;2023-07-31T00:46:18;7.47;;;2.10;;
70067;SDS011;57425;51.616;6.680;2023-07-31T00:48:45;10.25;;;2.50;;
70067;SDS011;57425;51.616;6.680;2023-07-31T00:51:11;7.55;;;2.05;;
70067;SDS011;57425;51.616;6.680;2023-07-31T00:53:36;5.93;;;2.10;;
70067;SDS011;57425;51.616;6.680;2023-07-31T00:56:03;5.70;;;2.45;;
70067;SDS011;57425;51.616;6.680;2023-07-31T00:58:29;9.25;;;2.72;;
70067;SDS011;57425;51.616;6.680;2023-07-31T01:00:55;6.95;;;2.05;;
70067;SDS011;57425;51.616;6.680;2023-07-31T01:03:20;3.38;;;1.40;;
70067;SDS011;57425;51.616;6.680;2023-07-31T01:05:53;4.47;;;2.15;;
70067;SDS011;57425;51.616;6.680;2023-07-31T01:09:03;8.65;;;3.03;;
70067;SDS011;57425;51.616;6.680;2023-07-31T01:11:42;5.53;;;2.28;;
70067;SDS011;57425;51.616;6.680;2023-07-31T01:16:37;3.97;;;1.80;;
70067;SDS011;57425;51.616;6.680;2023-07-31T01:19:03;5.88;;;2.13;;
70067;SDS011;57425;51.616;6.680;2023-07-31T01:26:38;7.90;;;2.17;;
70067;SDS011;57425;51.616;6.680;2023-07-31T01:29:17;6.35;;;2.00;;
70067;SDS011;57425;51.616;6.680;2023-07-31T01:31:47;12.65;;;2.35;;
70067;SDS011;57425;51.616;6.680;2023-07-31T01:34:15;4.88;;;1.80;;
70067;SDS011;57425;51.616;6.680;2023-07-31T01:36:43;9.13;;;2.15;;
70067;SDS011;57425;51.616;6.680;2023-07-31T01:39:09;4.57;;;1.98;;
70067;SDS011;57425;51.616;6.680;2023-07-31T01:41:34;2.97;;;1.65;;
70067;SDS011;57425;51.616;6.680;2023-07-31T01:44:00;9.20;;;2.55;;
70067;SDS011;57425;51.616;6.680;2023-07-31T01:46:26;5.53;;;2.00;;
70067;SDS011;57425;51.616;6.680;2023-07-31T01:48:51;5.50;;;2.22;;
70067;SDS011;57425;51.616;6.680;2023-07-31T01:51:17;6.20;;;1.90;;
70067;SDS011;57425;51.616;6.680;2023-07-31T01:53:42;12.95;;;2.25;;
70067;SDS011;57425;51.616;6.680;2023-07-31T01:56:08;7.07;;;2.00;;
70067;SDS011;57425;51.616;6.680;2023-07-31T01:58:34;5.00;;;2.13;;
70067;SDS011;57425;51.616;6.680;2023-07-31T02:00:59;4.05;;;1.63;;
70067;SDS011;57425;51.616;6.680;2023-07-31T02:03:25;8.77;;;2.45;;
70067;SDS011;57425;51.616;6.680;2023-07-31T02:05:50;2.72;;;1.30;;
70067;SDS011;57425;51.616;6.680;2023-07-31T02:08:16;6.22;;;1.65;;
70067;SDS011;57425;51.616;6.680;2023-07-31T02:10:42;6.75;;;1.90;;
70067;SDS011;57425;51.616;6.680;2023-07-31T02:13:08;6.13;;;2.45;;
70067;SDS011;57425;51.616;6.680;2023-07-31T02:15:33;5.40;;;1.77;;
70067;SDS011;57425;51.616;6.680;2023-07-31T02:17:59;6.43;;;1.95;;
70067;SDS011;57425;51.616;6.680;2023-07-31T02:20:25;7.43;;;2.47;;
70067;SDS011;57425;51.616;6.680;2023-07-31T02:22:50;8.82;;;2.53;;
70067;SDS011;57425;51.616;6.680;2023-07-31T02:25:16;7.55;;;2.33;;
70067;SDS011;57425;51.616;6.680;2023-07-31T02:27:42;6.47;;;1.75;;
70067;SDS011;57425;51.616;6.680;2023-07-31T02:30:08;6.57;;;1.65;;
70067;SDS011;57425;51.616;6.680;2023-07-31T02:32:34;10.00;;;2.55;;
70067;SDS011;57425;51.616;6.680;2023-07-31T02:34:59;6.40;;;1.95;;
70067;SDS011;57425;51.616;6.680;2023-07-31T02:37:25;6.85;;;2.03;;
70067;SDS011;57425;51.616;6.680;2023-07-31T02:39:51;7.05;;;1.88;;
70067;SDS011;57425;51.616;6.680;2023-07-31T02:42:17;9.52;;;2.60;;
70067;SDS011;57425;51.616;6.680;2023-07-31T02:44:42;6.85;;;1.95;;
70067;SDS011;57425;51.616;6.680;2023-07-31T02:47:08;9.77;;;2.25;;
70067;SDS011;57425;51.616;6.680;2023-07-31T02:49:34;6.50;;;1.52;;
70067;SDS011;57425;51.616;6.680;2023-07-31T02:51:59;6.30;;;2.08;;
70067;SDS011;57425;51.616;6.680;2023-07-31T02:54:25;9.18;;;2.00;;
70067;SDS011;57425;51.616;6.680;2023-07-31T02:56:51;8.05;;;2.03;;
70067;SDS011;57425;51.616;6.680;2023-07-31T02:59:16;6.85;;;2.22;;
70067;SDS011;57425;51.616;6.680;2023-07-31T03:01:42;9.20;;;2.53;;
70067;SDS011;57425;51.616;6.680;2023-07-31T03:04:08;19.80;;;3.20;;
70067;SDS011;57425;51.616;6.680;2023-07-31T03:06:33;8.82;;;2.53;;
70067;SDS011;57425;51.616;6.680;2023-07-31T03:08:59;8.45;;;2.35;;
70067;SDS011;57425;51.616;6.680;2023-07-31T03:11:24;5.90;;;2.13;;
70067;SDS011;57425;51.616;6.680;2023-07-31T03:13:50;8.65;;;2.45;;
70067;SDS011;57425;51.616;6.680;2023-07-31T03:16:15;4.57;;;1.85;;
70067;SDS011;57425;51.616;6.680;2023-07-31T03:18:41;6.70;;;2.00;;
70067;SDS011;57425;51.616;6.680;2023-07-31T03:21:07;6.50;;;2.33;;
70067;SDS011;57425;51.616;6.680;2023-07-31T03:23:32;6.53;;;2.53;;
70067;SDS011;57425;51.616;6.680;2023-07-31T03:26:01;4.53;;;1.58;;
70067;SDS011;57425;51.616;6.680;2023-07-31T03:28:28;7.93;;;2.28;;
70067;SDS011;57425;51.616;6.680;2023-07-31T03:30:54;8.93;;;2.10;;
70067;SDS011;57425;51.616;6.680;2023-07-31T03:33:20;6.45;;;2.28;;
70067;SDS011;57425;51.616;6.680;2023-07-31T03:35:46;8.85;;;2.80;;
70067;SDS011;57425;51.616;6.680;2023-07-31T03:38:12;9.73;;;2.63;;
70067;SDS011;57425;51.616;6.680;2023-07-31T03:40:38;6.63;;;2.38;;
70067;SDS011;57425;51.616;6.680;2023-07-31T03:43:04;9.30;;;2.80;;
70067;SDS011;57425;51.616;6.680;2023-07-31T03:45:30;8.50;;;2.80;;
70067;SDS011;57425;51.616;6.680;2023-07-31T03:47:56;8.05;;;2.38;;
70067;SDS011;57425;51.616;6.680;2023-07-31T03:50:21;12.20;;;2.40;;
70067;SDS011;57425;51.616;6.680;2023-07-31T03:52:47;8.13;;;1.98;;
70067;SDS011;57425;51.616;6.680;2023-07-31T03:55:12;8.30;;;2.65;;
70067;SDS011;57425;51.616;6.680;2023-07-31T03:57:38;9.02;;;2.45;;
70067;SDS011;57425;51.616;6.680;2023-07-31T04:00:04;9.05;;;2.67;;
70067;SDS011;57425;51.616;6.680;2023-07-31T04:02:30;8.60;;;2.47;;
70067;SDS011;57425;51.616;6.680;2023-07-31T04:04:55;6.68;;;2.25;;
70067;SDS011;57425;51.616;6.680;2023-07-31T04:07:21;4.75;;;1.95;;
70067;SDS011;57425;51.616;6.680;2023-07-31T04:09:46;5.07;;;2.20;;
70067;SDS011;57425;51.616;6.680;2023-07-31T04:12:12;13.35;;;2.78;;
70067;SDS011;57425;51.616;6.680;2023-07-31T04:14:37;7.32;;;2.70;;
70067;SDS011;57425;51.616;6.680;2023-07-31T04:17:03;10.15;;;2.28;;
70067;SDS011;57425;51.616;6.680;2023-07-31T04:19:29;10.98;;;2.22;;
70067;SDS011;57425;51.616;6.680;2023-07-31T04:21:54;11.48;;;2.67;;
70067;SDS011;57425;51.616;6.680;2023-07-31T04:24:20;8.07;;;2.40;;
70067;SDS011;57425;51.616;6.680;2023-07-31T04:26:51;6.40;;;1.83;;
70067;SDS011;57425;51.616;6.680;2023-07-31T04:29:18;8.63;;;2.47;;
70067;SDS011;57425;51.616;6.680;2023-07-31T04:31:44;5.75;;;2.15;;
70067;SDS011;57425;51.616;6.680;2023-07-31T04:34:09;5.60;;;2.17;;
70067;SDS011;57425;51.616;6.680;2023-07-31T04:36:36;6.05;;;1.70;;
70067;SDS011;57425;51.616;6.680;2023-07-31T04:39:02;7.28;;;2.22;;
70067;SDS011;57425;51.616;6.680;2023-07-31T04:41:27;17.75;;;2.10;;
70067;SDS011;57425;51.616;6.680;2023-07-31T04:43:53;7.55;;;2.17;;
70067;SDS011;57425;51.616;6.680;2023-07-31T04:46:18;4.10;;;1.92;;
70067;SDS011;57425;51.616;6.680;2023-07-31T04:48:44;13.98;;;2.15;;
70067;SDS011;57425;51.616;6.680;2023-07-31T04:51:10;4.97;;;1.92;;
70067;SDS011;57425;51.616;6.680;2023-07-31T04:53:35;6.65;;;1.90;;
70067;SDS011;57425;51.616;6.680;2023-07-31T04:56:01;12.32;;;2.38;;
70067;SDS011;57425;51.616;6.680;2023-07-31T04:58:27;9.05;;;2.00;;
70067;SDS011;57425;51.616;6.680;2023-07-31T05:00:53;6.45;;;2.00;;
70067;SDS011;57425;51.616;6.680;2023-07-31T05:03:18;4.55;;;2.10;;
70067;SDS011;57425;51.616;6.680;2023-07-31T05:05:44;6.22;;;2.08;;
70067;SDS011;57425;51.616;6.680;2023-07-31T05:08:10;5.45;;;2.60;;
70067;SDS011;57425;51.616;6.680;2023-07-31T05:10:35;5.60;;;1.83;;
70067;SDS011;57425;51.616;6.680;2023-07-31T05:13:01;8.80;;;2.10;;
70067;SDS011;57425;51.616;6.680;2023-07-31T05:15:27;8.25;;;1.88;;
70067;SDS011;57425;51.616;6.680;2023-07-31T05:17:53;5.95;;;2.50;;
70067;SDS011;57425;51.616;6.680;2023-07-31T05:20:18;5.18;;;1.95;;
70067;SDS011;57425;51.616;6.680;2023-07-31T05:22:44;9.23;;;2.42;;
70067;SDS011;57425;51.616;6.680;2023-07-31T05:25:09;12.13;;;1.95;;
70067;SDS011;57425;51.616;6.680;2023-07-31T05:27:35;6.03;;;2.10;;
70067;SDS011;57425;51.616;6.680;2023-07-31T05:30:00;4.43;;;1.75;;
70067;SDS011;57425;51.616;6.680;2023-07-31T05:32:26;11.90;;;2.40;;
70067;SDS011;57425;51.616;6.680;2023-07-31T05:34:52;11.02;;;2.53;;
70067;SDS011;57425;51.616;6.680;2023-07-31T05:37:18;6.60;;;2.53;;
70067;SDS011;57425;51.616;6.680;2023-07-31T05:39:44;3.30;;;1.77;;
70067;SDS011;57425;51.616;6.680;2023-07-31T05:42:10;6.30;;;1.95;;
70067;SDS011;57425;51.616;6.680;2023-07-31T05:44:35;6.20;;;2.17;;
70067;SDS011;57425;51.616;6.680;2023-07-31T05:47:01;8.48;;;2.15;;
70067;SDS011;57425;51.616;6.680;2023-07-31T05:49:26;10.43;;;2.03;;
70067;SDS011;57425;51.616;6.680;2023-07-31T05:51:52;5.35;;;2.15;;
70067;SDS011;57425;51.616;6.680;2023-07-31T05:54:17;4.80;;;2.13;;
70067;SDS011;57425;51.616;6.680;2023-07-31T05:56:43;6.05;;;1.95;;
70067;SDS011;57425;51.616;6.680;2023-07-31T05:59:09;6.63;;;1.75;;
70067;SDS011;57425;51.616;6.680;2023-07-31T06:01:37;6.82;;;2.05;;
70067;SDS011;57425;51.616;6.680;2023-07-31T06:04:02;5.75;;;2.30;;
70067;SDS011;57425;51.616;6.680;2023-07-31T06:06:28;5.93;;;1.90;;
70067;SDS011;57425;51.616;6.680;2023-07-31T06:08:54;9.10;;;2.25;;
70067;SDS011;57425;51.616;6.680;2023-07-31T06:11:20;3.97;;;1.92;;
70067;SDS011;57425;51.616;6.680;2023-07-31T06:13:46;5.82;;;2.28;;
70067;SDS011;57425;51.616;6.680;2023-07-31T06:16:13;5.82;;;2.28;;
70067;SDS011;57425;51.616;6.680;2023-07-31T06:18:39;3.85;;;2.40;;
70067;SDS011;57425;51.616;6.680;2023-07-31T06:21:04;5.55;;;1.70;;
70067;SDS011;57425;51.616;6.680;2023-07-31T06:23:30;6.43;;;2.28;;
70067;SDS011;57425;51.616;6.680;2023-07-31T06:25:56;5.53;;;2.85;;
70067;SDS011;57425;51.616;6.680;2023-07-31T06:28:23;5.35;;;1.92;;
70067;SDS011;57425;51.616;6.680;2023-07-31T06:30:56;9.70;;;2.15;;
70067;SDS011;57425;51.616;6.680;2023-07-31T06:33:22;9.15;;;2.13;;
70067;SDS011;57425;51.616;6.680;2023-07-31T06:35:48;4.53;;;2.10;;
70067;SDS011;57425;51.616;6.680;2023-07-31T06:38:13;4.32;;;1.77;;
70067;SDS011;57425;51.616;6.680;2023-07-31T06:40:39;4.85;;;2.33;;
70067;SDS011;57425;51.616;6.680;2023-07-31T06:43:05;5.18;;;2.50;;
70067;SDS011;57425;51.616;6.680;2023-07-31T06:45:34;6.57;;;2.00;;
70067;SDS011;57425;51.616;6.680;2023-07-31T06:48:00;4.20;;;1.92;;
70067;SDS011;57425;51.616;6.680;2023-07-31T06:50:27;2.78;;;1.60;;
70067;SDS011;57425;51.616;6.680;2023-07-31T06:52:56;4.35;;;2.10;;
70067;SDS011;57425;51.616;6.680;2023-07-31T06:55:22;6.30;;;2.80;;
70067;SDS011;57425;51.616;6.680;2023-07-31T06:57:49;3.65;;;1.70;;
70067;SDS011;57425;51.616;6.680;2023-07-31T07:00:16;2.78;;;1.35;;
70067;SDS011;57425;51.616;6.680;2023-07-31T07:02:43;2.92;;;1.80;;
70067;SDS011;57425;51.616;6.680;2023-07-31T07:05:09;4.10;;;1.65;;
70067;SDS011;57425;51.616;6.680;2023-07-31T07:07:35;7.68;;;2.45;;
70067;SDS011;57425;51.616;6.680;2023-07-31T07:10:01;2.42;;;1.60;;
70067;SDS011;57425;51.616;6.680;2023-07-31T07:12:29;6.80;;;1.65;;
70067;SDS011;57425;51.616;6.680;2023-07-31T07:14:55;3.33;;;1.60;;
70067;SDS011;57425;51.616;6.680;2023-07-31T07:17:22;6.13;;;2.05;;
70067;SDS011;57425;51.616;6.680;2023-07-31T07:19:48;9.02;;;2.30;;
70067;SDS011;57425;51.616;6.680;2023-07-31T07:22:14;4.65;;;2.03;;
70067;SDS011;57425;51.616;6.680;2023-07-31T07:24:39;4.22;;;1.80;;
70067;SDS011;57425;51.616;6.680;2023-07-31T07:27:05;5.07;;;2.25;;
70067;SDS011;57425;51.616;6.680;2023-07-31T07:29:31;2.58;;;1.35;;
70067;SDS011;57425;51.616;6.680;2023-07-31T07:31:56;1.75;;;0.88;;
70067;SDS011;57425;51.616;6.680;2023-07-31T07:34:22;1.90;;;1.20;;
70067;SDS011;57425;51.616;6.680;2023-07-31T07:36:50;4.72;;;1.30;;
70067;SDS011;57425;51.616;6.680;2023-07-31T07:39:15;3.40;;;1.50;;
70067;SDS011;57425;51.616;6.680;2023-07-31T07:41:41;2.15;;;1.00;;
70067;SDS011;57425;51.616;6.680;2023-07-31T07:44:07;3.85;;;1.92;;
70067;SDS011;57425;51.616;6.680;2023-07-31T07:46:33;3.03;;;1.38;;
70067;SDS011;57425;51.616;6.680;2023-07-31T07:48:58;3.17;;;1.10;;
70067;SDS011;57425;51.616;6.680;2023-07-31T07:51:24;2.90;;;1.35;;
70067;SDS011;57425;51.616;6.680;2023-07-31T07:53:50;2.97;;;1.55;;
70067;SDS011;57425;51.616;6.680;2023-07-31T07:56:15;6.53;;;1.35;;
70067;SDS011;57425;51.616;6.680;2023-07-31T07:58:41;3.80;;;1.42;;
70067;SDS011;57425;51.616;6.680;2023-07-31T08:01:06;2.45;;;1.30;;
70067;SDS011;57425;51.616;6.680;2023-07-31T08:03:32;2.80;;;1.30;;
70067;SDS011;57425;51.616;6.680;2023-07-31T08:06:01;1.90;;;1.00;;
70067;SDS011;57425;51.616;6.680;2023-07-31T08:08:30;1.88;;;1.20;;
70067;SDS011;57425;51.616;6.680;2023-07-31T08:10:55;1.98;;;1.20;;
70067;SDS011;57425;51.616;6.680;2023-07-31T08:13:21;2.50;;;1.00;;
70067;SDS011;57425;51.616;6.680;2023-07-31T08:15:46;1.45;;;1.00;;
70067;SDS011;57425;51.616;6.680;2023-07-31T08:18:12;2.35;;;1.10;;
70067;SDS011;57425;51.616;6.680;2023-07-31T08:20:37;3.25;;;1.35;;
70067;SDS011;57425;51.616;6.680;2023-07-31T08:23:03;1.20;;;0.68;;
70067;SDS011;57425;51.616;6.680;2023-07-31T08:25:29;2.28;;;1.20;;
70067;SDS011;57425;51.616;6.680;2023-07-31T08:27:55;5.45;;;1.95;;
70067;SDS011;57425;51.616;6.680;2023-07-31T08:30:20;2.70;;;1.20;;
70067;SDS011;57425;51.616;6.680;2023-07-31T08:32:46;4.13;;;1.25;;
70067;SDS011;57425;51.616;6.680;2023-07-31T08:35:12;3.65;;;1.35;;
70067;SDS011;57425;51.616;6.680;2023-07-31T08:37:38;2.00;;;1.27;;
70067;SDS011;57425;51.616;6.680;2023-07-31T08:40:04;2.95;;;1.27;;
70067;SDS011;57425;51.616;6.680;2023-07-31T08:42:31;2.85;;;0.90;;
70067;SDS011;57425;51.616;6.680;2023-07-31T08:44:57;1.65;;;0.88;;
70067;SDS011;57425;51.616;6.680;2023-07-31T08:47:25;1.30;;;0.98;;
70067;SDS011;57425;51.616;6.680;2023-07-31T08:49:51;3.35;;;1.10;;
70067;SDS011;57425;51.616;6.680;2023-07-31T08:52:19;1.60;;;0.88;;
70067;SDS011;57425;51.616;6.680;2023-07-31T08:54:45;2.97;;;1.10;;
70067;SDS011;57425;51.616;6.680;2023-07-31T08:57:11;2.72;;;0.95;;
70067;SDS011;57425;51.616;6.680;2023-07-31T08:59:37;1.40;;;1.00;;
70067;SDS011;57425;51.616;6.680;2023-07-31T09:02:07;1.50;;;0.98;;
70067;SDS011;57425;51.616;6.680;2023-07-31T09:04:33;1.88;;;1.02;;
70067;SDS011;57425;51.616;6.680;2023-07-31T09:07:00;2.60;;;1.20;;
70067;SDS011;57425;51.616;6.680;2023-07-31T09:09:29;2.25;;;1.33;;
70067;SDS011;57425;51.616;6.680;2023-07-31T09:11:56;2.80;;;1.27;;
70067;SDS011;57425;51.616;6.680;2023-07-31T09:14:24;2.67;;;1.10;;
70067;SDS011;57425;51.616;6.680;2023-07-31T09:19:25;0.77;;;0.60;;
70067;SDS011;57425;51.616;6.680;2023-07-31T09:24:30;1.65;;;0.82;;
70067;SDS011;57425;51.616;6.680;2023-07-31T09:26:57;7.45;;;0.85;;
70067;SDS011;57425;51.616;6.680;2023-07-31T09:29:26;3.13;;;1.50;;
70067;SDS011;57425;51.616;6.680;2023-07-31T09:31:53;3.85;;;1.42;;
70067;SDS011;57425;51.616;6.680;2023-07-31T09:34:20;3.40;;;1.00;;
70067;SDS011;57425;51.616;6.680;2023-07-31T09:36:52;2.42;;;1.08;;
70067;SDS011;57425;51.616;6.680;2023-07-31T09:39:18;2.35;;;0.98;;
70067;SDS011;57425;51.616;6.680;2023-07-31T09:41:53;1.10;;;0.93;;
70067;SDS011;57425;51.616;6.680;2023-07-31T09:44:20;2.45;;;1.23;;
70067;SDS011;57425;51.616;6.680;2023-07-31T09:46:46;1.00;;;0.93;;
70067;SDS011;57425;51.616;6.680;2023-07-31T09:49:12;1.60;;;1.00;;
70067;SDS011;57425;51.616;6.680;2023-07-31T09:51:40;4.20;;;1.10;;
70067;SDS011;57425;51.616;6.680;2023-07-31T09:54:13;1.05;;;0.65;;
70067;SDS011;57425;51.616;6.680;2023-07-31T09:56:44;2.30;;;1.17;;
70067;SDS011;57425;51.616;6.680;2023-07-31T09:59:12;2.28;;;1.33;;
70067;SDS011;57425;51.616;6.680;2023-07-31T10:01:42;1.58;;;0.93;;
70067;SDS011;57425;51.616;6.680;2023-07-31T10:04:09;1.67;;;0.85;;
70067;SDS011;57425;51.616;6.680;2023-07-31T10:06:36;2.83;;;1.20;;
70067;SDS011;57425;51.616;6.680;2023-07-31T10:09:07;3.42;;;0.90;;
70067;SDS011;57425;51.616;6.680;2023-07-31T10:11:41;1.13;;;1.02;;
70067;SDS011;57425;51.616;6.680;2023-07-31T10:16:37;2.55;;;1.33;;
70067;SDS011;57425;51.616;6.680;2023-07-31T10:19:04;4.82;;;0.98;;
70067;SDS011;57425;51.616;6.680;2023-07-31T10:21:31;1.45;;;0.98;;
70067;SDS011;57425;51.616;6.680;2023-07-31T10:24:00;1.92;;;1.05;;
70067;SDS011;57425;51.616;6.680;2023-07-31T10:26:28;1.80;;;1.20;;
70067;SDS011;57425;51.616;6.680;2023-07-31T10:28:55;1.35;;;1.20;;
70067;SDS011;57425;51.616;6.680;2023-07-31T10:31:22;1.63;;;1.30;;
70067;SDS011;57425;51.616;6.680;2023-07-31T10:33:49;5.40;;;1.60;;
70067;SDS011;57425;51.616;6.680;2023-07-31T10:36:17;1.25;;;1.00;;
70067;SDS011;57425;51.616;6.680;2023-07-31T10:38:44;2.30;;;0.98;;
70067;SDS011;57425;51.616;6.680;2023-07-31T10:41:10;2.42;;;1.10;;
70067;SDS011;57425;51.616;6.680;2023-07-31T10:43:36;3.40;;;1.23;;
70067;SDS011;57425;51.616;6.680;2023-07-31T10:46:12;3.92;;;1.20;;
70067;SDS011;57425;51.616;6.680;2023-07-31T10:48:39;2.95;;;1.25;;
70067;SDS011;57425;51.616;6.680;2023-07-31T10:51:09;2.38;;;1.35;;
70067;SDS011;57425;51.616;6.680;2023-07-31T10:53:36;7.07;;;1.38;;
70067;SDS011;57425;51.616;6.680;2023-07-31T10:56:04;1.65;;;1.00;;
70067;SDS011;57425;51.616;6.680;2023-07-31T10:58:31;4.32;;;1.20;;
70067;SDS011;57425;51.616;6.680;2023-07-31T11:00:58;4.07;;;1.77;;
70067;SDS011;57425;51.616;6.680;2023-07-31T11:03:26;3.17;;;1.60;;
70067;SDS011;57425;51.616;6.680;2023-07-31T11:06:05;4.60;;;1.48;;
70067;SDS011;57425;51.616;6.680;2023-07-31T11:08:35;2.28;;;1.42;;
70067;SDS011;57425;51.616;6.680;2023-07-31T11:11:08;3.70;;;1.52;;
70067;SDS011;57425;51.616;6.680;2023-07-31T11:13:45;5.43;;;1.67;;
70067;SDS011;57425;51.616;6.680;2023-07-31T11:16:15;2.78;;;1.52;;
70067;SDS011;57425;51.616;6.680;2023-07-31T11:18:43;2.30;;;1.30;;
70067;SDS011;57425;51.616;6.680;2023-07-31T11:21:13;2.90;;;1.48;;
70067;SDS011;57425;51.616;6.680;2023-07-31T11:23:40;3.42;;;1.40;;
70067;SDS011;57425;51.616;6.680;2023-07-31T11:26:06;6.82;;;1.20;;
70067;SDS011;57425;51.616;6.680;2023-07-31T11:28:33;3.78;;;1.83;;
70067;SDS011;57425;51.616;6.680;2023-07-31T11:31:00;3.33;;;1.30;;
70067;SDS011;57425;51.616;6.680;2023-07-31T11:33:26;2.72;;;1.15;;
70067;SDS011;57425;51.616;6.680;2023-07-31T11:35:52;1.73;;;0.95;;
70067;SDS011;57425;51.616;6.680;2023-07-31T11:38:21;1.63;;;0.90;;
70067;SDS011;57425;51.616;6.680;2023-07-31T11:41:05;1.80;;;1.13;;
70067;SDS011;57425;51.616;6.680;2023-07-31T11:43:31;1.63;;;1.02;;
70067;SDS011;57425;51.616;6.680;2023-07-31T11:45:57;2.05;;;1.13;;
70067;SDS011;57425;51.616;6.680;2023-07-31T11:48:32;2.58;;;1.00;;
70067;SDS011;57425;51.616;6.680;2023-07-31T11:51:00;4.28;;;1.35;;
70067;SDS011;57425;51.616;6.680;2023-07-31T11:53:29;17.65;;;1.40;;
70067;SDS011;57425;51.616;6.680;2023-07-31T11:56:00;3.22;;;0.93;;
70067;SDS011;57425;51.616;6.680;2023-07-31T11:58:29;3.30;;;1.38;;
70067;SDS011;57425;51.616;6.680;2023-07-31T12:00:56;2.47;;;1.08;;
70067;SDS011;57425;51.616;6.680;2023-07-31T12:03:25;2.58;;;1.25;;
70067;SDS011;57425;51.616;6.680;2023-07-31T12:05:52;3.72;;;1.30;;
70067;SDS011;57425;51.616;6.680;2023-07-31T12:08:20;7.38;;;1.10;;
70067;SDS011;57425;51.616;6.680;2023-07-31T12:10:49;2.38;;;1.30;;
70067;SDS011;57425;51.616;6.680;2023-07-31T12:13:20;2.30;;;1.30;;
70067;SDS011;57425;51.616;6.680;2023-07-31T12:15:47;2.20;;;0.95;;
70067;SDS011;57425;51.616;6.680;2023-07-31T12:18:13;1.25;;;0.98;;
70067;SDS011;57425;51.616;6.680;2023-07-31T12:20:41;3.85;;;1.67;;
70067;SDS011;57425;51.616;6.680;2023-07-31T12:23:17;1.85;;;1.15;;
70067;SDS011;57425;51.616;6.680;2023-07-31T12:25:54;1.50;;;1.17;;
70067;SDS011;57425;51.616;6.680;2023-07-31T12:28:28;2.05;;;1.08;;
70067;SDS011;57425;51.616;6.680;2023-07-31T12:30:57;2.78;;;1.50;;
70067;SDS011;57425;51.616;6.680;2023-07-31T12:33:30;4.05;;;1.25;;
70067;SDS011;57425;51.616;6.680;2023-07-31T12:35:57;1.92;;;1.20;;
70067;SDS011;57425;51.616;6.680;2023-07-31T12:38:23;3.47;;;1.00;;
70067;SDS011;57425;51.616;6.680;2023-07-31T12:40:48;1.55;;;1.00;;
70067;SDS011;57425;51.616;6.680;2023-07-31T12:43:14;8.13;;;1.50;;
70067;SDS011;57425;51.616;6.680;2023-07-31T12:45:40;4.72;;;1.55;;
70067;SDS011;57425;51.616;6.680;2023-07-31T12:48:06;2.55;;;1.60;;
70067;SDS011;57425;51.616;6.680;2023-07-31T12:50:32;1.85;;;1.13;;
70067;SDS011;57425;51.616;6.680;2023-07-31T12:52:57;3.58;;;1.35;;
70067;SDS011;57425;51.616;6.680;2023-07-31T12:55:23;2.08;;;1.00;;
70067;SDS011;57425;51.616;6.680;2023-07-31T12:57:49;4.10;;;1.50;;
70067;SDS011;57425;51.616;6.680;2023-07-31T13:00:15;4.28;;;1.30;;
70067;SDS011;57425;51.616;6.680;2023-07-31T13:02:41;2.55;;;1.67;;
70067;SDS011;57425;51.616;6.680;2023-07-31T13:05:07;2.70;;;1.08;;
70067;SDS011;57425;51.616;6.680;2023-07-31T13:07:33;1.90;;;1.33;;
70067;SDS011;57425;51.616;6.680;2023-07-31T13:09:59;4.25;;;1.23;;
70067;SDS011;57425;51.616;6.680;2023-07-31T13:12:25;2.47;;;1.23;;
70067;SDS011;57425;51.616;6.680;2023-07-31T13:14:52;4.32;;;1.50;;
70067;SDS011;57425;51.616;6.680;2023-07-31T13:17:18;15.32;;;1.27;;
70067;SDS011;57425;51.616;6.680;2023-07-31T13:19:44;1.38;;;0.80;;
70067;SDS011;57425;51.616;6.680;2023-07-31T13:22:09;2.17;;;1.33;;
70067;SDS011;57425;51.616;6.680;2023-07-31T13:24:35;1.48;;;1.13;;
70067;SDS011;57425;51.616;6.680;2023-07-31T13:27:01;3.08;;;1.63;;
70067;SDS011;57425;51.616;6.680;2023-07-31T13:29:26;2.35;;;1.15;;
70067;SDS011;57425;51.616;6.680;2023-07-31T13:31:52;2.58;;;1.13;;
70067;SDS011;57425;51.616;6.680;2023-07-31T13:34:18;1.67;;;1.27;;
70067;SDS011;57425;51.616;6.680;2023-07-31T13:36:44;3.25;;;1.55;;
70067;SDS011;57425;51.616;6.680;2023-07-31T13:39:09;3.22;;;1.58;;
70067;SDS011;57425;51.616;6.680;2023-07-31T13:41:35;4.07;;;1.73;;
70067;SDS011;57425;51.616;6.680;2023-07-31T13:44:00;4.95;;;1.50;;
70067;SDS011;57425;51.616;6.680;2023-07-31T13:46:26;4.88;;;1.65;;
70067;SDS011;57425;51.616;6.680;2023-07-31T13:48:52;4.55;;;1.63;;
70067;SDS011;57425;51.616;6.680;2023-07-31T13:51:21;2.50;;;1.40;;
70067;SDS011;57425;51.616;6.680;2023-07-31T13:53:46;2.75;;;1.50;;
70067;SDS011;57425;51.616;6.680;2023-07-31T13:56:12;4.07;;;2.17;;
70067;SDS011;57425;51.616;6.680;2023-07-31T13:58:38;3.28;;;1.73;;
70067;SDS011;57425;51.616;6.680;2023-07-31T14:01:04;5.30;;;1.85;;
70067;SDS011;57425;51.616;6.680;2023-07-31T14:03:30;2.95;;;1.63;;
70067;SDS011;57425;51.616;6.680;2023-07-31T14:05:56;6.53;;;1.85;;
70067;SDS011;57425;51.616;6.680;2023-07-31T14:08:22;4.47;;;1.80;;
70067;SDS011;57425;51.616;6.680;2023-07-31T14:10:47;2.95;;;1.52;;
70067;SDS011;57425;51.616;6.680;2023-07-31T14:13:13;3.65;;;1.80;;
70067;SDS011;57425;51.616;6.680;2023-07-31T14:15:41;5.53;;;1.90;;
70067;SDS011;57425;51.616;6.680;2023-07-31T14:18:08;2.72;;;1.45;;
70067;SDS011;57425;51.616;6.680;2023-07-31T14:20:34;4.47;;;1.83;;
70067;SDS011;57425;51.616;6.680;2023-07-31T14:22:59;6.80;;;1.90;;
70067;SDS011;57425;51.616;6.680;2023-07-31T14:25:25;4.20;;;1.77;;
70067;SDS011;57425;51.616;6.680;2023-07-31T14:27:51;3.33;;;1.73;;
70067;SDS011;57425;51.616;6.680;2023-07-31T14:30:17;3.13;;;1.80;;
70067;SDS011;57425;51.616;6.680;2023-07-31T14:32:43;4.78;;;2.05;;
70067;SDS011;57425;51.616;6.680;2023-07-31T14:35:10;3.47;;;1.75;;
70067;SDS011;57425;51.616;6.680;2023-07-31T14:37:42;3.30;;;1.88;;
70067;SDS011;57425;51.616;6.680;2023-07-31T14:40:10;6.13;;;1.60;;
70067;SDS011;57425;51.616;6.680;2023-07-31T14:42:37;3.13;;;2.03;;
70067;SDS011;57425;51.616;6.680;2023-07-31T14:45:04;9.20;;;2.00;;
70067;SDS011;57425;51.616;6.680;2023-07-31T14:49:59;3.08;;;2.05;;
70067;SDS011;57425;51.616;6.680;2023-07-31T14:52:25;3.92;;;1.75;;
70067;SDS011;57425;51.616;6.680;2023-07-31T14:54:51;3.05;;;1.70;;
70067;SDS011;57425;51.616;6.680;2023-07-31T14:57:17;6.13;;;2.75;;
70067;SDS011;57425;51.616;6.680;2023-07-31T14:59:43;4.22;;;2.00;;
70067;SDS011;57425;51.616;6.680;2023-07-31T15:02:09;7.97;;;2.42;;